sensor_id;sensor_type;location;lat;lon;timestamp;temperature;humidity
4453;DHT22;2239;48.152;11.584;2023-03-01T00:01:11;1.20;99.90
4453;DHT22;2239;48.152;11.584;2023-03-01T00:03:37;1.20;99.90
4453;DHT22;2239;48.152;11.584;2023-03-01T00:06:03;1.20;99.90
4453;DHT22;2239;48.152;11.584;2023-03-01T00:08:29;1.20;99.90
4453;DHT22;2239;48.152;11.584;2023-03-01T00:11:14;1.20;99.90
4453;DHT22;2239;48.152;11.584;2023-03-01T00:13:41;1.10;99.90
4453;DHT22;2239;48.152;11.584;2023-03-01T00:16:09;1.20;99.90
4453;DHT22;2239;48.152;11.584;2023-03-01T00:18:35;1.20;99.90
4453;DHT22;2239;48.152;11.584;2023-03-01T00:21:01;1.20;99.90
4453;DHT22;2239;48.152;11.584;2023-03-01T00:23:27;1.10;99.90
4453;DHT22;2239;48.152;11.584;2023-03-01T00:25:53;1.10;99.90
4453;DHT22;2239;48.152;11.584;2023-03-01T00:28:20;1.10;99.90
4453;DHT22;2239;48.152;11.584;2023-03-01T00:30:46;1.10;99.90
4453;DHT22;2239;48.152;11.584;2023-03-01T00:33:12;1.10;99.90
4453;DHT22;2239;48.152;11.584;2023-03-01T00:35:38;1.10;99.90
4453;DHT22;2239;48.152;11.584;2023-03-01T00:38:04;1.10;99.90
4453;DHT22;2239;48.152;11.584;2023-03-01T00:40:32;1.10;99.90
4453;DHT22;2239;48.152;11.584;2023-03-01T00:42:58;1.10;99.90
4453;DHT22;2239;48.152;11.584;2023-03-01T00:45:24;1.10;99.90
4453;DHT22;2239;48.152;11.584;2023-03-01T00:47:50;1.00;99.90
4453;DHT22;2239;48.152;11.584;2023-03-01T00:50:17;1.10;99.90
4453;DHT22;2239;48.152;11.584;2023-03-01T00:52:42;1.00;99.90
4453;DHT22;2239;48.152;11.584;2023-03-01T00:55:08;1.00;99.90
4453;DHT22;2239;48.152;11.584;2023-03-01T00:57:34;1.10;99.90
4453;DHT22;2239;48.152;11.584;2023-03-01T01:00:00;1.10;99.90
4453;DHT22;2239;48.152;11.584;2023-03-01T01:02:25;1.10;99.90
4453;DHT22;2239;48.152;11.584;2023-03-01T01:04:51;1.10;99.90
4453;DHT22;2239;48.152;11.584;2023-03-01T01:07:17;1.10;99.90
4453;DHT22;2239;48.152;11.584;2023-03-01T01:09:45;1.00;99.90
4453;DHT22;2239;48.152;11.584;2023-03-01T01:12:11;1.10;99.90
4453;DHT22;2239;48.152;11.584;2023-03-01T01:14:37;1.00;99.90
4453;DHT22;2239;48.152;11.584;2023-03-01T01:17:03;1.10;99.90
4453;DHT22;2239;48.152;11.584;2023-03-01T01:19:29;1.00;99.90
4453;DHT22;2239;48.152;11.584;2023-03-01T01:21:54;1.00;99.90
4453;DHT22;2239;48.152;11.584;2023-03-01T01:24:20;1.00;99.90
4453;DHT22;2239;48.152;11.584;2023-03-01T01:26:46;1.00;99.90
4453;DHT22;2239;48.152;11.584;2023-03-01T01:29:12;1.00;99.90
4453;DHT22;2239;48.152;11.584;2023-03-01T01:31:40;1.00;99.90
4453;DHT22;2239;48.152;11.584;2023-03-01T01:34:07;1.00;99.90
4453;DHT22;2239;48.152;11.584;2023-03-01T01:36:34;1.00;99.90
4453;DHT22;2239;48.152;11.584;2023-03-01T01:39:00;1.00;99.90
4453;DHT22;2239;48.152;11.584;2023-03-01T01:41:27;1.00;99.90
4453;DHT22;2239;48.152;11.584;2023-03-01T01:44:29;1.00;99.90
4453;DHT22;2239;48.152;11.584;2023-03-01T01:47:05;1.00;99.90
4453;DHT22;2239;48.152;11.584;2023-03-01T01:49:44;1.00;99.90
4453;DHT22;2239;48.152;11.584;2023-03-01T01:52:11;1.00;99.90
4453;DHT22;2239;48.152;11.584;2023-03-01T01:54:44;1.00;99.90
4453;DHT22;2239;48.152;11.584;2023-03-01T01:57:15;1.00;99.90
4453;DHT22;2239;48.152;11.584;2023-03-01T01:59:43;1.00;99.90
4453;DHT22;2239;48.152;11.584;2023-03-01T02:02:11;0.90;99.90
4453;DHT22;2239;48.152;11.584;2023-03-01T02:04:38;0.90;99.90
4453;DHT22;2239;48.152;11.584;2023-03-01T02:07:17;0.90;99.90
4453;DHT22;2239;48.152;11.584;2023-03-01T02:09:47;0.90;99.90
4453;DHT22;2239;48.152;11.584;2023-03-01T02:12:18;0.80;99.90
4453;DHT22;2239;48.152;11.584;2023-03-01T02:14:45;0.90;99.90
4453;DHT22;2239;48.152;11.584;2023-03-01T02:17:12;0.80;99.90
4453;DHT22;2239;48.152;11.584;2023-03-01T02:22:45;0.90;99.90
4453;DHT22;2239;48.152;11.584;2023-03-01T02:28:01;0.90;99.90
4453;DHT22;2239;48.152;11.584;2023-03-01T02:30:29;0.90;99.90
4453;DHT22;2239;48.152;11.584;2023-03-01T02:32:57;0.90;99.90
4453;DHT22;2239;48.152;11.584;2023-03-01T02:35:35;0.80;99.90
4453;DHT22;2239;48.152;11.584;2023-03-01T02:38:03;0.80;99.90
4453;DHT22;2239;48.152;11.584;2023-03-01T02:40:33;0.80;99.90
4453;DHT22;2239;48.152;11.584;2023-03-01T02:42:59;0.80;99.90
4453;DHT22;2239;48.152;11.584;2023-03-01T02:45:26;0.70;99.90
4453;DHT22;2239;48.152;11.584;2023-03-01T02:47:56;0.70;99.90
4453;DHT22;2239;48.152;11.584;2023-03-01T02:53:27;0.70;99.90
4453;DHT22;2239;48.152;11.584;2023-03-01T02:55:55;0.80;99.90
4453;DHT22;2239;48.152;11.584;2023-03-01T02:58:21;0.80;99.90
4453;DHT22;2239;48.152;11.584;2023-03-01T03:00:47;0.80;99.90
4453;DHT22;2239;48.152;11.584;2023-03-01T03:03:15;0.80;99.90
4453;DHT22;2239;48.152;11.584;2023-03-01T03:05:42;0.80;99.90
4453;DHT22;2239;48.152;11.584;2023-03-01T03:08:07;0.70;99.90
4453;DHT22;2239;48.152;11.584;2023-03-01T03:10:36;0.70;99.90
4453;DHT22;2239;48.152;11.584;2023-03-01T03:13:05;0.70;99.90
4453;DHT22;2239;48.152;11.584;2023-03-01T03:15:31;0.80;99.90
4453;DHT22;2239;48.152;11.584;2023-03-01T03:18:02;0.70;99.90
4453;DHT22;2239;48.152;11.584;2023-03-01T03:20:28;0.70;99.90
4453;DHT22;2239;48.152;11.584;2023-03-01T03:22:56;0.60;99.90
4453;DHT22;2239;48.152;11.584;2023-03-01T03:25:22;0.60;99.90
4453;DHT22;2239;48.152;11.584;2023-03-01T03:27:49;0.60;99.90
4453;DHT22;2239;48.152;11.584;2023-03-01T03:30:18;0.60;99.90
4453;DHT22;2239;48.152;11.584;2023-03-01T03:32:46;0.50;99.90
4453;DHT22;2239;48.152;11.584;2023-03-01T03:35:19;0.60;99.90
4453;DHT22;2239;48.152;11.584;2023-03-01T03:37:44;0.60;99.90
4453;DHT22;2239;48.152;11.584;2023-03-01T03:40:32;0.50;99.90
4453;DHT22;2239;48.152;11.584;2023-03-01T03:42:58;0.60;99.90
4453;DHT22;2239;48.152;11.584;2023-03-01T03:45:24;0.60;99.90
4453;DHT22;2239;48.152;11.584;2023-03-01T03:47:49;0.50;99.90
4453;DHT22;2239;48.152;11.584;2023-03-01T03:50:16;0.50;99.90
4453;DHT22;2239;48.152;11.584;2023-03-01T03:52:42;0.40;99.90
4453;DHT22;2239;48.152;11.584;2023-03-01T03:55:10;0.50;99.90
4453;DHT22;2239;48.152;11.584;2023-03-01T03:57:40;0.50;99.90
4453;DHT22;2239;48.152;11.584;2023-03-01T04:00:10;0.50;99.90
4453;DHT22;2239;48.152;11.584;2023-03-01T04:02:42;0.50;99.90
4453;DHT22;2239;48.152;11.584;2023-03-01T04:05:09;0.40;99.90
4453;DHT22;2239;48.152;11.584;2023-03-01T04:07:35;0.40;99.90
4453;DHT22;2239;48.152;11.584;2023-03-01T04:10:03;0.30;99.90
4453;DHT22;2239;48.152;11.584;2023-03-01T04:12:29;0.40;99.90
4453;DHT22;2239;48.152;11.584;2023-03-01T04:14:55;0.30;99.90
4453;DHT22;2239;48.152;11.584;2023-03-01T04:17:20;0.30;99.90
4453;DHT22;2239;48.152;11.584;2023-03-01T04:19:46;0.30;99.90
4453;DHT22;2239;48.152;11.584;2023-03-01T04:22:14;0.40;99.90
4453;DHT22;2239;48.152;11.584;2023-03-01T04:24:44;0.40;99.90
4453;DHT22;2239;48.152;11.584;2023-03-01T04:27:10;0.30;99.90
4453;DHT22;2239;48.152;11.584;2023-03-01T04:29:35;0.30;99.90
4453;DHT22;2239;48.152;11.584;2023-03-01T04:32:01;0.30;99.90
4453;DHT22;2239;48.152;11.584;2023-03-01T04:34:28;0.30;99.90
4453;DHT22;2239;48.152;11.584;2023-03-01T04:36:54;0.20;99.90
4453;DHT22;2239;48.152;11.584;2023-03-01T04:39:19;0.20;99.90
4453;DHT22;2239;48.152;11.584;2023-03-01T04:41:45;0.10;99.90
4453;DHT22;2239;48.152;11.584;2023-03-01T04:44:11;0.10;99.90
4453;DHT22;2239;48.152;11.584;2023-03-01T04:46:36;0.10;99.90
4453;DHT22;2239;48.152;11.584;2023-03-01T04:49:02;0.00;99.90
4453;DHT22;2239;48.152;11.584;2023-03-01T04:51:28;0.00;99.90
4453;DHT22;2239;48.152;11.584;2023-03-01T04:53:54;0.00;99.90
4453;DHT22;2239;48.152;11.584;2023-03-01T04:56:19;0.00;99.90
4453;DHT22;2239;48.152;11.584;2023-03-01T04:58:46;0.00;99.90
4453;DHT22;2239;48.152;11.584;2023-03-01T05:01:17;-0.10;99.90
4453;DHT22;2239;48.152;11.584;2023-03-01T05:03:45;-0.10;99.90
4453;DHT22;2239;48.152;11.584;2023-03-01T05:06:11;-0.10;99.90
4453;DHT22;2239;48.152;11.584;2023-03-01T05:08:40;-0.20;99.90
4453;DHT22;2239;48.152;11.584;2023-03-01T05:11:06;-0.20;99.90
4453;DHT22;2239;48.152;11.584;2023-03-01T05:13:35;-0.20;99.90
4453;DHT22;2239;48.152;11.584;2023-03-01T05:16:02;-0.30;99.90
4453;DHT22;2239;48.152;11.584;2023-03-01T05:18:30;-0.30;99.90
4453;DHT22;2239;48.152;11.584;2023-03-01T05:21:01;-0.30;99.90
4453;DHT22;2239;48.152;11.584;2023-03-01T05:23:30;-0.30;99.90
4453;DHT22;2239;48.152;11.584;2023-03-01T05:26:01;-0.30;99.90
4453;DHT22;2239;48.152;11.584;2023-03-01T05:28:28;-0.40;99.90
4453;DHT22;2239;48.152;11.584;2023-03-01T05:30:54;-0.50;99.90
4453;DHT22;2239;48.152;11.584;2023-03-01T05:33:20;-0.40;99.90
4453;DHT22;2239;48.152;11.584;2023-03-01T05:35:48;-0.50;99.90
4453;DHT22;2239;48.152;11.584;2023-03-01T05:38:15;-0.40;99.90
4453;DHT22;2239;48.152;11.584;2023-03-01T05:40:41;-0.30;99.90
4453;DHT22;2239;48.152;11.584;2023-03-01T05:43:07;-0.30;99.90
4453;DHT22;2239;48.152;11.584;2023-03-01T05:45:36;-0.30;99.90
4453;DHT22;2239;48.152;11.584;2023-03-01T05:48:01;-0.40;99.90
4453;DHT22;2239;48.152;11.584;2023-03-01T05:50:29;-0.40;99.90
4453;DHT22;2239;48.152;11.584;2023-03-01T05:53:01;-0.40;99.90
4453;DHT22;2239;48.152;11.584;2023-03-01T05:55:28;-0.40;99.90
4453;DHT22;2239;48.152;11.584;2023-03-01T05:57:54;-0.40;99.90
4453;DHT22;2239;48.152;11.584;2023-03-01T06:00:21;-0.50;99.90
4453;DHT22;2239;48.152;11.584;2023-03-01T06:02:49;-0.50;99.90
4453;DHT22;2239;48.152;11.584;2023-03-01T06:05:17;-0.40;99.90
4453;DHT22;2239;48.152;11.584;2023-03-01T06:07:43;-0.40;99.90
4453;DHT22;2239;48.152;11.584;2023-03-01T06:10:10;-0.40;99.90
4453;DHT22;2239;48.152;11.584;2023-03-01T06:12:37;-0.50;99.90
4453;DHT22;2239;48.152;11.584;2023-03-01T06:15:04;-0.50;99.90
4453;DHT22;2239;48.152;11.584;2023-03-01T06:17:31;-0.50;99.90
4453;DHT22;2239;48.152;11.584;2023-03-01T06:19:57;-0.50;99.90
4453;DHT22;2239;48.152;11.584;2023-03-01T06:22:23;-0.50;99.90
4453;DHT22;2239;48.152;11.584;2023-03-01T06:24:49;-0.40;99.90
4453;DHT22;2239;48.152;11.584;2023-03-01T06:27:15;-0.40;99.90
4453;DHT22;2239;48.152;11.584;2023-03-01T06:29:40;-0.50;99.90
4453;DHT22;2239;48.152;11.584;2023-03-01T06:32:06;-0.50;99.90
4453;DHT22;2239;48.152;11.584;2023-03-01T06:34:33;-0.50;99.90
4453;DHT22;2239;48.152;11.584;2023-03-01T06:36:58;-0.50;99.90
4453;DHT22;2239;48.152;11.584;2023-03-01T06:39:24;-0.50;99.90
4453;DHT22;2239;48.152;11.584;2023-03-01T06:41:49;-0.40;99.90
4453;DHT22;2239;48.152;11.584;2023-03-01T06:44:15;-0.40;99.90
4453;DHT22;2239;48.152;11.584;2023-03-01T06:46:41;-0.40;99.90
4453;DHT22;2239;48.152;11.584;2023-03-01T06:49:06;-0.40;99.90
4453;DHT22;2239;48.152;11.584;2023-03-01T06:51:35;-0.40;99.90
4453;DHT22;2239;48.152;11.584;2023-03-01T06:54:02;-0.30;99.90
4453;DHT22;2239;48.152;11.584;2023-03-01T06:56:28;-0.30;99.90
4453;DHT22;2239;48.152;11.584;2023-03-01T06:58:54;-0.40;99.90
4453;DHT22;2239;48.152;11.584;2023-03-01T07:01:19;-0.40;99.90
4453;DHT22;2239;48.152;11.584;2023-03-01T07:03:45;-0.40;99.90
4453;DHT22;2239;48.152;11.584;2023-03-01T07:06:10;-0.30;99.90
4453;DHT22;2239;48.152;11.584;2023-03-01T07:08:36;-0.30;99.90
4453;DHT22;2239;48.152;11.584;2023-03-01T07:11:01;-0.30;99.90
4453;DHT22;2239;48.152;11.584;2023-03-01T07:13:28;-0.30;99.90
4453;DHT22;2239;48.152;11.584;2023-03-01T07:15:54;-0.30;99.90
4453;DHT22;2239;48.152;11.584;2023-03-01T07:18:19;-0.30;99.90
4453;DHT22;2239;48.152;11.584;2023-03-01T07:20:46;-0.30;99.90
4453;DHT22;2239;48.152;11.584;2023-03-01T07:23:12;-0.20;99.90
4453;DHT22;2239;48.152;11.584;2023-03-01T07:25:37;-0.20;99.90
4453;DHT22;2239;48.152;11.584;2023-03-01T07:28:03;-0.10;99.90
4453;DHT22;2239;48.152;11.584;2023-03-01T07:30:29;-0.10;99.90
4453;DHT22;2239;48.152;11.584;2023-03-01T07:32:55;0.00;99.90
4453;DHT22;2239;48.152;11.584;2023-03-01T07:35:22;0.00;99.90
4453;DHT22;2239;48.152;11.584;2023-03-01T07:37:48;0.00;99.90
4453;DHT22;2239;48.152;11.584;2023-03-01T07:40:14;0.00;99.90
4453;DHT22;2239;48.152;11.584;2023-03-01T07:42:43;0.10;99.90
4453;DHT22;2239;48.152;11.584;2023-03-01T07:45:10;0.20;99.90
4453;DHT22;2239;48.152;11.584;2023-03-01T07:47:36;0.10;99.90
4453;DHT22;2239;48.152;11.584;2023-03-01T07:50:02;0.10;99.90
4453;DHT22;2239;48.152;11.584;2023-03-01T07:52:29;0.20;99.90
4453;DHT22;2239;48.152;11.584;2023-03-01T07:54:55;0.20;99.90
4453;DHT22;2239;48.152;11.584;2023-03-01T07:57:20;0.20;99.90
4453;DHT22;2239;48.152;11.584;2023-03-01T07:59:46;0.30;99.90
4453;DHT22;2239;48.152;11.584;2023-03-01T08:02:11;0.30;99.90
4453;DHT22;2239;48.152;11.584;2023-03-01T08:04:37;0.30;99.90
4453;DHT22;2239;48.152;11.584;2023-03-01T08:07:05;0.30;99.90
4453;DHT22;2239;48.152;11.584;2023-03-01T08:09:31;0.20;99.90
4453;DHT22;2239;48.152;11.584;2023-03-01T08:11:57;0.30;99.90
4453;DHT22;2239;48.152;11.584;2023-03-01T08:14:25;0.20;99.90
4453;DHT22;2239;48.152;11.584;2023-03-01T08:16:50;0.30;99.90
4453;DHT22;2239;48.152;11.584;2023-03-01T08:19:16;0.20;99.90
4453;DHT22;2239;48.152;11.584;2023-03-01T08:21:42;0.30;99.90
4453;DHT22;2239;48.152;11.584;2023-03-01T08:24:07;0.40;99.90
4453;DHT22;2239;48.152;11.584;2023-03-01T08:26:35;0.30;99.90
4453;DHT22;2239;48.152;11.584;2023-03-01T08:29:01;0.40;99.90
4453;DHT22;2239;48.152;11.584;2023-03-01T08:31:31;0.40;99.90
4453;DHT22;2239;48.152;11.584;2023-03-01T08:33:59;0.40;99.90
4453;DHT22;2239;48.152;11.584;2023-03-01T08:36:27;0.40;99.90
4453;DHT22;2239;48.152;11.584;2023-03-01T08:38:53;0.40;99.90
4453;DHT22;2239;48.152;11.584;2023-03-01T08:41:19;0.50;99.90
4453;DHT22;2239;48.152;11.584;2023-03-01T08:43:45;0.50;99.90
4453;DHT22;2239;48.152;11.584;2023-03-01T08:46:11;0.50;99.90
4453;DHT22;2239;48.152;11.584;2023-03-01T08:48:37;0.70;99.90
4453;DHT22;2239;48.152;11.584;2023-03-01T08:51:17;0.70;99.90
4453;DHT22;2239;48.152;11.584;2023-03-01T08:53:44;0.80;99.90
4453;DHT22;2239;48.152;11.584;2023-03-01T08:56:10;0.70;99.90
4453;DHT22;2239;48.152;11.584;2023-03-01T08:58:37;0.80;99.90
4453;DHT22;2239;48.152;11.584;2023-03-01T09:01:14;0.90;99.90
4453;DHT22;2239;48.152;11.584;2023-03-01T09:03:40;0.90;99.90
4453;DHT22;2239;48.152;11.584;2023-03-01T09:06:06;0.90;99.90
4453;DHT22;2239;48.152;11.584;2023-03-01T09:08:37;1.00;99.90
4453;DHT22;2239;48.152;11.584;2023-03-01T09:11:05;1.10;99.90
4453;DHT22;2239;48.152;11.584;2023-03-01T09:13:31;1.20;99.90
4453;DHT22;2239;48.152;11.584;2023-03-01T09:16:01;1.20;99.90
4453;DHT22;2239;48.152;11.584;2023-03-01T09:18:28;1.10;99.90
4453;DHT22;2239;48.152;11.584;2023-03-01T09:20:59;1.20;99.90
4453;DHT22;2239;48.152;11.584;2023-03-01T09:23:25;1.30;99.90
4453;DHT22;2239;48.152;11.584;2023-03-01T09:25:52;1.40;99.90
4453;DHT22;2239;48.152;11.584;2023-03-01T09:28:17;1.40;99.90
4453;DHT22;2239;48.152;11.584;2023-03-01T09:30:43;1.40;99.90
4453;DHT22;2239;48.152;11.584;2023-03-01T09:33:08;1.40;99.90
4453;DHT22;2239;48.152;11.584;2023-03-01T09:35:40;1.40;99.90
4453;DHT22;2239;48.152;11.584;2023-03-01T09:38:11;1.40;99.90
4453;DHT22;2239;48.152;11.584;2023-03-01T09:40:42;1.50;99.90
4453;DHT22;2239;48.152;11.584;2023-03-01T09:43:29;1.50;99.90
4453;DHT22;2239;48.152;11.584;2023-03-01T09:46:03;1.60;99.90
4453;DHT22;2239;48.152;11.584;2023-03-01T09:48:35;1.60;99.90
4453;DHT22;2239;48.152;11.584;2023-03-01T09:51:08;1.60;99.90
4453;DHT22;2239;48.152;11.584;2023-03-01T09:53:34;1.70;99.90
4453;DHT22;2239;48.152;11.584;2023-03-01T09:56:22;1.80;99.90
4453;DHT22;2239;48.152;11.584;2023-03-01T09:58:54;2.10;99.90
4453;DHT22;2239;48.152;11.584;2023-03-01T10:04:13;2.20;99.90
4453;DHT22;2239;48.152;11.584;2023-03-01T10:09:22;2.10;99.90
4453;DHT22;2239;48.152;11.584;2023-03-01T10:11:51;2.10;99.90
4453;DHT22;2239;48.152;11.584;2023-03-01T10:20:42;2.20;99.90
4453;DHT22;2239;48.152;11.584;2023-03-01T10:23:09;2.50;99.90
4453;DHT22;2239;48.152;11.584;2023-03-01T10:28:20;2.60;99.10
4453;DHT22;2239;48.152;11.584;2023-03-01T10:30:49;2.90;98.80
4453;DHT22;2239;48.152;11.584;2023-03-01T10:33:23;3.30;97.90
4453;DHT22;2239;48.152;11.584;2023-03-01T10:35:49;3.40;97.70
4453;DHT22;2239;48.152;11.584;2023-03-01T10:38:16;3.40;97.40
4453;DHT22;2239;48.152;11.584;2023-03-01T10:41:05;3.40;97.20
4453;DHT22;2239;48.152;11.584;2023-03-01T10:43:55;3.40;97.10
4453;DHT22;2239;48.152;11.584;2023-03-01T10:46:30;3.30;97.10
4453;DHT22;2239;48.152;11.584;2023-03-01T10:49:20;3.30;97.00
4453;DHT22;2239;48.152;11.584;2023-03-01T10:51:49;3.30;97.40
4453;DHT22;2239;48.152;11.584;2023-03-01T10:54:35;3.70;97.20
4453;DHT22;2239;48.152;11.584;2023-03-01T10:57:04;4.00;96.00
4453;DHT22;2239;48.152;11.584;2023-03-01T10:59:31;4.10;95.90
4453;DHT22;2239;48.152;11.584;2023-03-01T11:04:35;4.90;94.40
4453;DHT22;2239;48.152;11.584;2023-03-01T11:07:02;4.60;93.90
4453;DHT22;2239;48.152;11.584;2023-03-01T11:09:32;4.40;94.30
4453;DHT22;2239;48.152;11.584;2023-03-01T11:12:08;4.40;94.30
4453;DHT22;2239;48.152;11.584;2023-03-01T11:14:39;4.30;94.60
4453;DHT22;2239;48.152;11.584;2023-03-01T11:17:30;4.60;94.60
4453;DHT22;2239;48.152;11.584;2023-03-01T11:22:51;5.40;93.50
4453;DHT22;2239;48.152;11.584;2023-03-01T11:25:20;5.80;93.00
4453;DHT22;2239;48.152;11.584;2023-03-01T11:27:48;6.00;92.50
4453;DHT22;2239;48.152;11.584;2023-03-01T11:33:11;6.10;92.00
4453;DHT22;2239;48.152;11.584;2023-03-01T11:35:44;6.60;91.40
4453;DHT22;2239;48.152;11.584;2023-03-01T11:38:20;6.60;91.10
4453;DHT22;2239;48.152;11.584;2023-03-01T11:43:32;6.70;90.90
4453;DHT22;2239;48.152;11.584;2023-03-01T11:52:07;6.60;89.30
4453;DHT22;2239;48.152;11.584;2023-03-01T11:54:46;6.30;90.60
4453;DHT22;2239;48.152;11.584;2023-03-01T12:03:19;7.00;90.30
4453;DHT22;2239;48.152;11.584;2023-03-01T12:06:06;6.90;90.00
4453;DHT22;2239;48.152;11.584;2023-03-01T12:13:47;6.80;90.00
4453;DHT22;2239;48.152;11.584;2023-03-01T12:25:05;6.60;90.50
4453;DHT22;2239;48.152;11.584;2023-03-01T12:33:29;6.80;90.30
4453;DHT22;2239;48.152;11.584;2023-03-01T12:36:37;6.70;90.60
4453;DHT22;2239;48.152;11.584;2023-03-01T12:44:47;6.70;90.70
4453;DHT22;2239;48.152;11.584;2023-03-01T12:50:24;7.20;90.00
4453;DHT22;2239;48.152;11.584;2023-03-01T12:52:56;7.10;90.10
4453;DHT22;2239;48.152;11.584;2023-03-01T12:55:29;6.90;90.10
4453;DHT22;2239;48.152;11.584;2023-03-01T12:58:29;7.00;90.30
4453;DHT22;2239;48.152;11.584;2023-03-01T13:04:04;7.10;90.50
4453;DHT22;2239;48.152;11.584;2023-03-01T13:06:41;7.00;90.20
4453;DHT22;2239;48.152;11.584;2023-03-01T13:11:55;7.10;90.20
4453;DHT22;2239;48.152;11.584;2023-03-01T13:16:52;7.20;90.70
4453;DHT22;2239;48.152;11.584;2023-03-01T13:19:20;7.40;90.20
4453;DHT22;2239;48.152;11.584;2023-03-01T13:21:48;7.50;90.30
4453;DHT22;2239;48.152;11.584;2023-03-01T13:24:33;7.90;89.60
4453;DHT22;2239;48.152;11.584;2023-03-01T13:29:53;8.10;88.20
4453;DHT22;2239;48.152;11.584;2023-03-01T13:34:54;8.10;88.00
4453;DHT22;2239;48.152;11.584;2023-03-01T13:37:26;7.80;88.40
4453;DHT22;2239;48.152;11.584;2023-03-01T13:39:52;7.50;88.40
4453;DHT22;2239;48.152;11.584;2023-03-01T13:42:33;7.50;90.00
4453;DHT22;2239;48.152;11.584;2023-03-01T13:45:00;7.50;90.00
4453;DHT22;2239;48.152;11.584;2023-03-01T13:47:27;7.50;89.60
4453;DHT22;2239;48.152;11.584;2023-03-01T13:50:03;7.60;89.90
4453;DHT22;2239;48.152;11.584;2023-03-01T13:52:45;7.60;89.50
4453;DHT22;2239;48.152;11.584;2023-03-01T13:57:42;7.80;89.10
4453;DHT22;2239;48.152;11.584;2023-03-01T14:00:32;7.70;89.60
4453;DHT22;2239;48.152;11.584;2023-03-01T14:03:19;7.70;89.60
4453;DHT22;2239;48.152;11.584;2023-03-01T14:06:00;7.50;89.80
4453;DHT22;2239;48.152;11.584;2023-03-01T14:08:28;7.70;89.50
4453;DHT22;2239;48.152;11.584;2023-03-01T14:16:31;8.20;88.80
4453;DHT22;2239;48.152;11.584;2023-03-01T14:19:21;8.20;88.70
4453;DHT22;2239;48.152;11.584;2023-03-01T14:27:14;8.10;89.50
4453;DHT22;2239;48.152;11.584;2023-03-01T14:29:41;8.20;89.60
4453;DHT22;2239;48.152;11.584;2023-03-01T14:32:11;8.40;89.40
4453;DHT22;2239;48.152;11.584;2023-03-01T14:34:44;8.20;88.10
4453;DHT22;2239;48.152;11.584;2023-03-01T14:39:42;8.00;89.50
4453;DHT22;2239;48.152;11.584;2023-03-01T14:42:08;8.00;90.10
4453;DHT22;2239;48.152;11.584;2023-03-01T14:44:34;7.80;90.30
4453;DHT22;2239;48.152;11.584;2023-03-01T14:47:03;7.60;90.60
4453;DHT22;2239;48.152;11.584;2023-03-01T14:49:31;7.50;90.90
4453;DHT22;2239;48.152;11.584;2023-03-01T14:52:06;7.50;91.10
4453;DHT22;2239;48.152;11.584;2023-03-01T14:54:47;7.40;91.20
4453;DHT22;2239;48.152;11.584;2023-03-01T14:57:22;7.40;91.30
4453;DHT22;2239;48.152;11.584;2023-03-01T14:59:48;7.40;91.40
4453;DHT22;2239;48.152;11.584;2023-03-01T15:02:18;7.40;91.70
4453;DHT22;2239;48.152;11.584;2023-03-01T15:04:52;7.40;91.90
4453;DHT22;2239;48.152;11.584;2023-03-01T15:07:18;7.40;91.70
4453;DHT22;2239;48.152;11.584;2023-03-01T15:09:45;7.50;92.00
4453;DHT22;2239;48.152;11.584;2023-03-01T15:14:57;7.50;92.10
4453;DHT22;2239;48.152;11.584;2023-03-01T15:17:35;7.50;92.20
4453;DHT22;2239;48.152;11.584;2023-03-01T15:20:22;7.60;92.20
4453;DHT22;2239;48.152;11.584;2023-03-01T15:22:51;7.50;92.20
4453;DHT22;2239;48.152;11.584;2023-03-01T15:25:19;7.50;92.20
4453;DHT22;2239;48.152;11.584;2023-03-01T15:27:46;7.40;92.20
4453;DHT22;2239;48.152;11.584;2023-03-01T15:30:24;7.50;92.10
4453;DHT22;2239;48.152;11.584;2023-03-01T15:33:25;7.40;92.20
4453;DHT22;2239;48.152;11.584;2023-03-01T15:35:55;7.30;92.60
4453;DHT22;2239;48.152;11.584;2023-03-01T15:38:54;7.50;92.40
4453;DHT22;2239;48.152;11.584;2023-03-01T15:41:47;7.40;92.40
4453;DHT22;2239;48.152;11.584;2023-03-01T15:44:31;7.40;92.70
4453;DHT22;2239;48.152;11.584;2023-03-01T15:46:57;7.30;92.80
4453;DHT22;2239;48.152;11.584;2023-03-01T15:49:36;7.10;93.10
4453;DHT22;2239;48.152;11.584;2023-03-01T15:52:03;7.00;93.40
4453;DHT22;2239;48.152;11.584;2023-03-01T15:54:30;6.90;93.60
4453;DHT22;2239;48.152;11.584;2023-03-01T15:56:56;7.00;93.80
4453;DHT22;2239;48.152;11.584;2023-03-01T15:59:22;7.00;93.80
4453;DHT22;2239;48.152;11.584;2023-03-01T16:01:48;7.00;93.90
4453;DHT22;2239;48.152;11.584;2023-03-01T16:04:15;7.00;94.00
4453;DHT22;2239;48.152;11.584;2023-03-01T16:06:46;6.90;94.10
4453;DHT22;2239;48.152;11.584;2023-03-01T16:09:12;6.90;94.40
4453;DHT22;2239;48.152;11.584;2023-03-01T16:11:38;6.80;94.60
4453;DHT22;2239;48.152;11.584;2023-03-01T16:14:05;6.80;94.70
4453;DHT22;2239;48.152;11.584;2023-03-01T16:16:30;6.70;95.00
4453;DHT22;2239;48.152;11.584;2023-03-01T16:18:56;6.60;95.20
4453;DHT22;2239;48.152;11.584;2023-03-01T16:21:23;6.60;95.30
4453;DHT22;2239;48.152;11.584;2023-03-01T16:23:50;6.60;95.50
4453;DHT22;2239;48.152;11.584;2023-03-01T16:26:16;6.60;95.60
4453;DHT22;2239;48.152;11.584;2023-03-01T16:28:44;6.60;95.70
4453;DHT22;2239;48.152;11.584;2023-03-01T16:31:10;6.50;95.80
4453;DHT22;2239;48.152;11.584;2023-03-01T16:33:37;6.50;96.10
4453;DHT22;2239;48.152;11.584;2023-03-01T16:36:10;6.50;96.10
4453;DHT22;2239;48.152;11.584;2023-03-01T16:38:36;6.40;96.20
4453;DHT22;2239;48.152;11.584;2023-03-01T16:41:02;6.30;96.40
4453;DHT22;2239;48.152;11.584;2023-03-01T16:43:29;6.20;96.60
4453;DHT22;2239;48.152;11.584;2023-03-01T16:45:55;6.20;96.90
4453;DHT22;2239;48.152;11.584;2023-03-01T16:48:21;6.10;97.10
4453;DHT22;2239;48.152;11.584;2023-03-01T16:50:56;6.10;97.20
4453;DHT22;2239;48.152;11.584;2023-03-01T16:53:22;6.10;97.50
4453;DHT22;2239;48.152;11.584;2023-03-01T16:55:53;6.00;97.60
4453;DHT22;2239;48.152;11.584;2023-03-01T16:58:19;6.00;97.80
4453;DHT22;2239;48.152;11.584;2023-03-01T17:00:44;6.00;98.10
4453;DHT22;2239;48.152;11.584;2023-03-01T17:03:10;5.90;98.10
4453;DHT22;2239;48.152;11.584;2023-03-01T17:05:40;5.90;98.30
4453;DHT22;2239;48.152;11.584;2023-03-01T17:08:06;5.80;98.50
4453;DHT22;2239;48.152;11.584;2023-03-01T17:10:33;5.80;98.90
4453;DHT22;2239;48.152;11.584;2023-03-01T17:12:58;5.70;99.10
4453;DHT22;2239;48.152;11.584;2023-03-01T17:15:24;5.60;99.40
4453;DHT22;2239;48.152;11.584;2023-03-01T17:17:49;5.60;99.70
4453;DHT22;2239;48.152;11.584;2023-03-01T17:20:16;5.60;99.90
4453;DHT22;2239;48.152;11.584;2023-03-01T17:22:42;5.60;99.90
4453;DHT22;2239;48.152;11.584;2023-03-01T17:25:09;5.60;99.90
4453;DHT22;2239;48.152;11.584;2023-03-01T17:27:36;5.50;99.90
4453;DHT22;2239;48.152;11.584;2023-03-01T17:30:03;5.50;99.90
4453;DHT22;2239;48.152;11.584;2023-03-01T17:32:29;5.50;99.90
4453;DHT22;2239;48.152;11.584;2023-03-01T17:34:55;5.50;99.90
4453;DHT22;2239;48.152;11.584;2023-03-01T17:37:20;5.40;99.90
4453;DHT22;2239;48.152;11.584;2023-03-01T17:39:46;5.40;99.90
4453;DHT22;2239;48.152;11.584;2023-03-01T17:42:11;5.40;99.90
4453;DHT22;2239;48.152;11.584;2023-03-01T17:44:37;5.30;99.90
4453;DHT22;2239;48.152;11.584;2023-03-01T17:47:04;5.20;99.90
4453;DHT22;2239;48.152;11.584;2023-03-01T17:49:30;5.20;99.90
4453;DHT22;2239;48.152;11.584;2023-03-01T17:51:56;5.00;99.90
4453;DHT22;2239;48.152;11.584;2023-03-01T17:54:22;4.80;99.90
4453;DHT22;2239;48.152;11.584;2023-03-01T17:56:48;4.80;99.90
4453;DHT22;2239;48.152;11.584;2023-03-01T17:59:13;4.80;99.90